ADDS METAR Data INFO
IDs: Format: Raw Decoded Include TAF

Data at: 0311 UTC 20 Jul 2018

KSLG 200256Z AUTO VRB05KT 10SM CLR 27/19 A2989 RMK AO2 SLP108 T02720194 51011
KSLG 200156Z AUTO VRB04G14KT 10SM CLR 29/22 A2989 RMK AO2 SLP107 T02940217
KSLG 200056Z AUTO 13005KT 10SM CLR 32/23 A2988 RMK AO2 SLP102 T03220233
KSLG 192356Z AUTO 11006KT 10SM CLR 34/22 A2986 RMK AO2 SLP097 T03440222 10361 20328 55008
KSLG 192256Z AUTO 13007KT 10SM CLR 36/21 A2986 RMK AO2 SLP096 T03560211
KSLG 192156Z AUTO 12007KT 10SM CLR 36/21 A2985 RMK AO2 SLP094 T03560211
KSLG 192056Z AUTO 12005KT 10SM CLR 36/22 A2988 RMK AO2 SLP105 T03560222 56008
KSLG 191956Z AUTO 00000KT 10SM CLR 35/23 A2989 RMK AO2 SLP107 T03500233
KSLG 191856Z AUTO 00000KT 10SM CLR 34/22 A2990 RMK AO2 SLP110 T03390222
KSLG 191756Z AUTO 00000KT 10SM CLR 33/23 A2991 RMK AO2 SLP114 T03280233 10328 20222 56004
KSLG 191656Z AUTO VRB06KT 10SM CLR 32/23 A2991 RMK AO2 SLP116 T03170233
KSLG 191556Z AUTO 24009KT 10SM CLR 31/23 A2991 RMK AO2 SLP115 T03060233
KSLG 191456Z AUTO 16008KT 10SM CLR 29/24 A2992 RMK AO2 SLP119 T02890239 58002
KSLG 191356Z AUTO 13006KT 10SM CLR 26/23 A2994 RMK AO2 SLP126 T02610233
KSLG 191256Z AUTO VRB03KT 7SM CLR 24/23 A2994 RMK AO2 SLP125 T02390228
KSLG 191156Z AUTO 10004KT 3SM BR SCT002 22/22 A2993 RMK AO2 SLP122 T02220222 10233 20217 55000
KSLG 191148Z AUTO 11006KT 2 1/2SM BR SCT004 22/22 A2992 RMK AO2
KSLG 191120Z AUTO 11005KT 3SM BR FEW002 22/22 A2992 RMK AO2
KSLG 191112Z AUTO 10004KT 1 1/4SM BR FEW002 22/22 A2992 RMK AO2
KSLG 191104Z AUTO 10004KT 1SM BR CLR 22/22 A2992 RMK AO2
KSLG 191056Z AUTO 00000KT 2 1/2SM BR CLR 22/22 A2992 RMK AO2 SLP120 T02170217
KSLG 190956Z AUTO 00000KT 3SM BR CLR 22/22 A2993 RMK AO2 SLP122 T02170217
KSLG 190756Z AUTO 15004KT 6SM BR CLR 22/22 A2993 RMK AO2 SLP124 T02220222
KSLG 190656Z AUTO 13003KT 8SM CLR 23/22 A2995 RMK AO2 SLP129 T02280222
KSLG 190556Z AUTO 00000KT 9SM CLR 23/23 A2997 RMK AO2 SLP135 T02330228 10294 20233 403060222 53004
KSLG 190456Z AUTO 00000KT 10SM CLR 23/22 A2996 RMK AO2 SLP133 T02330222
KSLG 190356Z AUTO 15005KT 10SM CLR 24/23 A2996 RMK AO2 SLP133 T02440228
KSLG 190256Z AUTO 17004KT 10SM CLR 25/23 A2995 RMK AO2 SLP133 T02500228 53007
KSLG 190156Z AUTO 18005KT 10SM CLR 26/23 A2994 RMK AO2 SLP126 T02610233
KSLG 190056Z AUTO 00000KT 10SM CLR 28/23 A2993 RMK AO2 SLP123 T02780228
KSLG 182356Z AUTO 18005KT 10SM CLR 29/22 A2993 RMK AO2 SLP124 T02890222 10306 20278 56007
KSLG 182256Z AUTO VRB04KT 10SM CLR 30/22 A2994 RMK AO2 SLP125 T03000217
KSLG 182156Z AUTO 20006KT 10SM CLR 29/22 A2995 RMK AO2 SLP129 T02890222
KSLG 182056Z AUTO 19007KT 10SM CLR 29/22 A2996 RMK AO2 SLP131 T02890222 58015
KSLG 181956Z AUTO 19010KT 10SM CLR 31/23 A2998 RMK AO2 SLP140 T03060228
KSLG 181856Z AUTO 19009KT 10SM FEW110 30/23 A2999 RMK AO2 SLP143 T03000233
KSLG 181756Z AUTO VRB05KT 10SM FEW110 28/24 A3000 RMK AO2 SLP147 60000 T02780239 10278 20222 58003
KSLG 181656Z AUTO 12003KT 10SM CLR 26/23 A3001 RMK AO2 SLP151 T02610228
KSLG 181556Z AUTO 07005KT 10SM CLR 24/23 A3002 RMK AO2 RAE40 SLP154 P0000 T02440228